sensor_id;sensor_type;location;lat;lon;timestamp;temperature;humidity
71096;DHT22;58753;49.440;11.126;2023-12-07T00:01:07;0.95;95.77
71096;DHT22;58753;49.440;11.126;2023-12-07T00:03:33;0.96;95.74
71096;DHT22;58753;49.440;11.126;2023-12-07T00:05:58;0.93;95.78
71096;DHT22;58753;49.440;11.126;2023-12-07T00:08:24;0.95;95.81
71096;DHT22;58753;49.440;11.126;2023-12-07T00:10:49;0.93;95.78
71096;DHT22;58753;49.440;11.126;2023-12-07T00:13:14;0.93;95.76
71096;DHT22;58753;49.440;11.126;2023-12-07T00:15:40;0.90;95.77
71096;DHT22;58753;49.440;11.126;2023-12-07T00:18:05;0.89;95.80
71096;DHT22;58753;49.440;11.126;2023-12-07T00:20:31;0.89;95.81
71096;DHT22;58753;49.440;11.126;2023-12-07T00:22:56;0.89;95.83
71096;DHT22;58753;49.440;11.126;2023-12-07T00:25:22;0.87;95.85
71096;DHT22;58753;49.440;11.126;2023-12-07T00:27:48;0.85;95.84
71096;DHT22;58753;49.440;11.126;2023-12-07T00:30:14;0.82;95.85
71096;DHT22;58753;49.440;11.126;2023-12-07T00:32:40;0.82;95.88
71096;DHT22;58753;49.440;11.126;2023-12-07T00:35:09;0.77;95.88
71096;DHT22;58753;49.440;11.126;2023-12-07T00:37:34;0.77;95.87
71096;DHT22;58753;49.440;11.126;2023-12-07T00:40:00;0.76;95.91
71096;DHT22;58753;49.440;11.126;2023-12-07T00:42:26;0.72;95.91
71096;DHT22;58753;49.440;11.126;2023-12-07T00:44:51;0.69;95.97
71096;DHT22;58753;49.440;11.126;2023-12-07T00:47:17;0.69;95.95
71096;DHT22;58753;49.440;11.126;2023-12-07T00:49:42;0.68;96.01
71096;DHT22;58753;49.440;11.126;2023-12-07T00:52:08;0.65;96.07
71096;DHT22;58753;49.440;11.126;2023-12-07T00:54:33;0.68;96.09
71096;DHT22;58753;49.440;11.126;2023-12-07T00:56:59;0.65;96.10
71096;DHT22;58753;49.440;11.126;2023-12-07T00:59:27;0.65;96.12
71096;DHT22;58753;49.440;11.126;2023-12-07T01:01:59;0.62;96.12
71096;DHT22;58753;49.440;11.126;2023-12-07T01:04:25;0.63;96.17
71096;DHT22;58753;49.440;11.126;2023-12-07T01:06:50;0.65;96.19
71096;DHT22;58753;49.440;11.126;2023-12-07T01:09:15;0.65;96.27
71096;DHT22;58753;49.440;11.126;2023-12-07T01:11:41;0.68;96.26
71096;DHT22;58753;49.440;11.126;2023-12-07T01:14:06;0.70;96.34
71096;DHT22;58753;49.440;11.126;2023-12-07T01:16:31;0.72;96.33
71096;DHT22;58753;49.440;11.126;2023-12-07T01:18:57;0.73;96.39
71096;DHT22;58753;49.440;11.126;2023-12-07T01:21:23;0.75;96.41
71096;DHT22;58753;49.440;11.126;2023-12-07T01:23:48;0.80;96.42
71096;DHT22;58753;49.440;11.126;2023-12-07T01:26:14;0.82;96.41
71096;DHT22;58753;49.440;11.126;2023-12-07T01:28:39;0.79;96.29
71096;DHT22;58753;49.440;11.126;2023-12-07T01:31:05;0.80;96.35
71096;DHT22;58753;49.440;11.126;2023-12-07T01:33:30;0.79;96.34
71096;DHT22;58753;49.440;11.126;2023-12-07T01:35:56;0.83;96.44
71096;DHT22;58753;49.440;11.126;2023-12-07T01:38:22;0.83;96.54
71096;DHT22;58753;49.440;11.126;2023-12-07T01:40:47;0.87;96.51
71096;DHT22;58753;49.440;11.126;2023-12-07T01:43:13;0.90;96.50
71096;DHT22;58753;49.440;11.126;2023-12-07T01:45:38;0.95;96.57
71096;DHT22;58753;49.440;11.126;2023-12-07T01:48:04;0.96;96.57
71096;DHT22;58753;49.440;11.126;2023-12-07T01:50:29;1.01;96.67
71096;DHT22;58753;49.440;11.126;2023-12-07T01:53:02;1.06;96.60
71096;DHT22;58753;49.440;11.126;2023-12-07T01:55:30;1.08;96.56
71096;DHT22;58753;49.440;11.126;2023-12-07T01:57:57;1.10;96.67
71096;DHT22;58753;49.440;11.126;2023-12-07T02:00:22;1.17;96.75
71096;DHT22;58753;49.440;11.126;2023-12-07T02:02:48;1.23;96.67
71096;DHT22;58753;49.440;11.126;2023-12-07T02:05:14;1.27;96.52
71096;DHT22;58753;49.440;11.126;2023-12-07T02:07:42;1.31;96.44
71096;DHT22;58753;49.440;11.126;2023-12-07T02:10:10;1.30;96.40
71096;DHT22;58753;49.440;11.126;2023-12-07T02:12:36;1.33;96.50
71096;DHT22;58753;49.440;11.126;2023-12-07T02:15:02;1.36;96.31
71096;DHT22;58753;49.440;11.126;2023-12-07T02:20:12;1.34;96.30
71096;DHT22;58753;49.440;11.126;2023-12-07T02:22:42;1.34;96.20
71096;DHT22;58753;49.440;11.126;2023-12-07T02:25:14;1.30;96.22
71096;DHT22;58753;49.440;11.126;2023-12-07T02:27:41;1.34;96.21
71096;DHT22;58753;49.440;11.126;2023-12-07T02:30:09;1.34;96.17
71096;DHT22;58753;49.440;11.126;2023-12-07T02:32:45;1.34;96.11
71096;DHT22;58753;49.440;11.126;2023-12-07T02:35:11;1.36;96.15
71096;DHT22;58753;49.440;11.126;2023-12-07T02:37:58;1.40;96.11
71096;DHT22;58753;49.440;11.126;2023-12-07T02:40:25;1.43;96.17
71096;DHT22;58753;49.440;11.126;2023-12-07T02:42:52;1.46;96.05
71096;DHT22;58753;49.440;11.126;2023-12-07T02:45:19;1.47;95.94
71096;DHT22;58753;49.440;11.126;2023-12-07T02:47:44;1.44;95.86
71096;DHT22;58753;49.440;11.126;2023-12-07T02:50:10;1.41;95.84
71096;DHT22;58753;49.440;11.126;2023-12-07T02:52:36;1.43;95.81
71096;DHT22;58753;49.440;11.126;2023-12-07T02:55:02;1.44;95.89
71096;DHT22;58753;49.440;11.126;2023-12-07T02:57:28;1.48;95.73
71096;DHT22;58753;49.440;11.126;2023-12-07T02:59:54;1.51;95.68
71096;DHT22;58753;49.440;11.126;2023-12-07T03:02:20;1.51;95.65
71096;DHT22;58753;49.440;11.126;2023-12-07T03:04:46;1.51;95.54
71096;DHT22;58753;49.440;11.126;2023-12-07T03:07:11;1.47;95.53
71096;DHT22;58753;49.440;11.126;2023-12-07T03:09:36;1.51;95.48
71096;DHT22;58753;49.440;11.126;2023-12-07T03:12:02;1.51;95.48
71096;DHT22;58753;49.440;11.126;2023-12-07T03:14:27;1.51;95.52
71096;DHT22;58753;49.440;11.126;2023-12-07T03:16:53;1.50;95.38
71096;DHT22;58753;49.440;11.126;2023-12-07T03:19:18;1.48;95.32
71096;DHT22;58753;49.440;11.126;2023-12-07T03:21:44;1.50;95.40
71096;DHT22;58753;49.440;11.126;2023-12-07T03:24:09;1.51;95.35
71096;DHT22;58753;49.440;11.126;2023-12-07T03:26:36;1.51;95.35
71096;DHT22;58753;49.440;11.126;2023-12-07T03:29:02;1.50;95.24
71096;DHT22;58753;49.440;11.126;2023-12-07T03:31:27;1.44;95.19
71096;DHT22;58753;49.440;11.126;2023-12-07T03:33:54;1.41;95.20
71096;DHT22;58753;49.440;11.126;2023-12-07T03:36:20;1.38;95.19
71096;DHT22;58753;49.440;11.126;2023-12-07T03:38:45;1.37;95.19
71096;DHT22;58753;49.440;11.126;2023-12-07T03:41:10;1.37;95.28
71096;DHT22;58753;49.440;11.126;2023-12-07T03:43:36;1.37;95.23
71096;DHT22;58753;49.440;11.126;2023-12-07T03:46:05;1.33;95.15
71096;DHT22;58753;49.440;11.126;2023-12-07T03:48:32;1.33;95.21
71096;DHT22;58753;49.440;11.126;2023-12-07T03:50:57;1.28;95.19
71096;DHT22;58753;49.440;11.126;2023-12-07T03:53:23;1.24;95.15
71096;DHT22;58753;49.440;11.126;2023-12-07T03:55:48;1.23;95.19
71096;DHT22;58753;49.440;11.126;2023-12-07T03:58:13;1.19;95.09
71096;DHT22;58753;49.440;11.126;2023-12-07T04:00:39;1.13;95.13
71096;DHT22;58753;49.440;11.126;2023-12-07T04:03:04;1.03;95.06
71096;DHT22;58753;49.440;11.126;2023-12-07T04:05:30;0.95;95.05
71096;DHT22;58753;49.440;11.126;2023-12-07T04:07:56;0.86;95.09
71096;DHT22;58753;49.440;11.126;2023-12-07T04:10:21;0.86;95.20
71096;DHT22;58753;49.440;11.126;2023-12-07T04:12:47;0.77;95.28
71096;DHT22;58753;49.440;11.126;2023-12-07T04:15:12;0.73;95.24
71096;DHT22;58753;49.440;11.126;2023-12-07T04:17:38;0.72;95.43
71096;DHT22;58753;49.440;11.126;2023-12-07T04:20:04;0.75;95.51
71096;DHT22;58753;49.440;11.126;2023-12-07T04:22:30;0.77;95.54
71096;DHT22;58753;49.440;11.126;2023-12-07T04:24:55;0.73;95.44
71096;DHT22;58753;49.440;11.126;2023-12-07T04:27:20;0.75;95.53
71096;DHT22;58753;49.440;11.126;2023-12-07T04:29:46;0.75;95.53
71096;DHT22;58753;49.440;11.126;2023-12-07T04:32:11;0.73;95.48
71096;DHT22;58753;49.440;11.126;2023-12-07T04:34:37;0.70;95.51
71096;DHT22;58753;49.440;11.126;2023-12-07T04:37:03;0.68;95.42
71096;DHT22;58753;49.440;11.126;2023-12-07T04:39:28;0.65;95.51
71096;DHT22;58753;49.440;11.126;2023-12-07T04:41:54;0.61;95.50
71096;DHT22;58753;49.440;11.126;2023-12-07T04:44:19;0.58;95.52
71096;DHT22;58753;49.440;11.126;2023-12-07T04:46:44;0.51;95.46
71096;DHT22;58753;49.440;11.126;2023-12-07T04:49:10;0.49;95.55
71096;DHT22;58753;49.440;11.126;2023-12-07T04:51:36;0.45;95.59
71096;DHT22;58753;49.440;11.126;2023-12-07T04:54:01;0.45;95.61
71096;DHT22;58753;49.440;11.126;2023-12-07T04:56:27;0.41;95.59
71096;DHT22;58753;49.440;11.126;2023-12-07T04:58:52;0.37;95.63
71096;DHT22;58753;49.440;11.126;2023-12-07T05:01:18;0.29;95.65
71096;DHT22;58753;49.440;11.126;2023-12-07T05:03:44;0.29;95.77
71096;DHT22;58753;49.440;11.126;2023-12-07T05:06:10;0.28;95.79
71096;DHT22;58753;49.440;11.126;2023-12-07T05:08:36;0.25;95.85
71096;DHT22;58753;49.440;11.126;2023-12-07T05:11:01;0.18;95.83
71096;DHT22;58753;49.440;11.126;2023-12-07T05:13:26;0.15;95.79
71096;DHT22;58753;49.440;11.126;2023-12-07T05:15:52;0.07;95.83
71096;DHT22;58753;49.440;11.126;2023-12-07T05:18:17;0.02;95.95
71096;DHT22;58753;49.440;11.126;2023-12-07T05:20:42;-0.06;95.95
71096;DHT22;58753;49.440;11.126;2023-12-07T05:23:08;-0.07;96.02
71096;DHT22;58753;49.440;11.126;2023-12-07T05:25:34;-0.10;96.11
71096;DHT22;58753;49.440;11.126;2023-12-07T05:27:59;-0.14;96.18
71096;DHT22;58753;49.440;11.126;2023-12-07T05:30:25;-0.19;96.19
71096;DHT22;58753;49.440;11.126;2023-12-07T05:32:50;-0.26;96.16
71096;DHT22;58753;49.440;11.126;2023-12-07T05:35:16;-0.29;96.24
71096;DHT22;58753;49.440;11.126;2023-12-07T05:37:41;-0.40;96.19
71096;DHT22;58753;49.440;11.126;2023-12-07T05:40:07;-0.44;96.25
71096;DHT22;58753;49.440;11.126;2023-12-07T05:42:34;-0.53;96.37
71096;DHT22;58753;49.440;11.126;2023-12-07T05:45:00;-0.58;96.46
71096;DHT22;58753;49.440;11.126;2023-12-07T05:47:26;-0.64;96.45
71096;DHT22;58753;49.440;11.126;2023-12-07T05:49:51;-0.70;96.52
71096;DHT22;58753;49.440;11.126;2023-12-07T05:52:17;-0.77;96.63
71096;DHT22;58753;49.440;11.126;2023-12-07T05:54:42;-0.81;96.71
71096;DHT22;58753;49.440;11.126;2023-12-07T05:57:08;-0.84;96.75
71096;DHT22;58753;49.440;11.126;2023-12-07T05:59:37;-0.87;96.81
71096;DHT22;58753;49.440;11.126;2023-12-07T06:02:03;-0.92;96.80
71096;DHT22;58753;49.440;11.126;2023-12-07T06:04:30;-0.98;96.81
71096;DHT22;58753;49.440;11.126;2023-12-07T06:06:55;-1.01;96.83
71096;DHT22;58753;49.440;11.126;2023-12-07T06:09:21;-1.01;96.96
71096;DHT22;58753;49.440;11.126;2023-12-07T06:11:46;-0.99;96.94
71096;DHT22;58753;49.440;11.126;2023-12-07T06:14:11;-1.05;97.01
71096;DHT22;58753;49.440;11.126;2023-12-07T06:16:37;-1.05;96.88
71096;DHT22;58753;49.440;11.126;2023-12-07T06:19:03;-1.05;96.98
71096;DHT22;58753;49.440;11.126;2023-12-07T06:21:29;-1.09;96.96
71096;DHT22;58753;49.440;11.126;2023-12-07T06:23:55;-1.05;97.13
71096;DHT22;58753;49.440;11.126;2023-12-07T06:26:22;-1.05;97.01
71096;DHT22;58753;49.440;11.126;2023-12-07T06:28:47;-1.02;97.10
71096;DHT22;58753;49.440;11.126;2023-12-07T06:31:13;-0.94;97.16
71096;DHT22;58753;49.440;11.126;2023-12-07T06:33:41;-0.89;97.15
71096;DHT22;58753;49.440;11.126;2023-12-07T06:36:07;-0.87;97.07
71096;DHT22;58753;49.440;11.126;2023-12-07T06:38:32;-0.75;97.67
71096;DHT22;58753;49.440;11.126;2023-12-07T06:40:58;-0.67;97.38
71096;DHT22;58753;49.440;11.126;2023-12-07T06:43:23;-0.68;97.12
71096;DHT22;58753;49.440;11.126;2023-12-07T06:45:49;-0.67;97.16
71096;DHT22;58753;49.440;11.126;2023-12-07T06:48:14;-0.65;97.27
71096;DHT22;58753;49.440;11.126;2023-12-07T06:50:39;-0.64;97.25
71096;DHT22;58753;49.440;11.126;2023-12-07T06:53:05;-0.64;97.15
71096;DHT22;58753;49.440;11.126;2023-12-07T06:55:31;-0.64;97.13
71096;DHT22;58753;49.440;11.126;2023-12-07T06:57:57;-0.64;97.21
71096;DHT22;58753;49.440;11.126;2023-12-07T07:00:22;-0.61;97.18
71096;DHT22;58753;49.440;11.126;2023-12-07T07:02:49;-0.56;97.24
71096;DHT22;58753;49.440;11.126;2023-12-07T07:05:15;-0.49;97.33
71096;DHT22;58753;49.440;11.126;2023-12-07T07:07:40;-0.45;97.23
71096;DHT22;58753;49.440;11.126;2023-12-07T07:10:06;-0.47;97.24
71096;DHT22;58753;49.440;11.126;2023-12-07T07:12:35;-0.47;97.29
71096;DHT22;58753;49.440;11.126;2023-12-07T07:15:00;-0.43;97.41
71096;DHT22;58753;49.440;11.126;2023-12-07T07:17:26;-0.40;97.41
71096;DHT22;58753;49.440;11.126;2023-12-07T07:19:51;-0.34;97.46
71096;DHT22;58753;49.440;11.126;2023-12-07T07:22:17;-0.27;97.37
71096;DHT22;58753;49.440;11.126;2023-12-07T07:24:42;-0.24;97.34
71096;DHT22;58753;49.440;11.126;2023-12-07T07:27:08;-0.23;97.34
71096;DHT22;58753;49.440;11.126;2023-12-07T07:29:33;-0.20;97.35
71096;DHT22;58753;49.440;11.126;2023-12-07T07:31:58;-0.17;97.34
71096;DHT22;58753;49.440;11.126;2023-12-07T07:34:24;-0.11;97.35
71096;DHT22;58753;49.440;11.126;2023-12-07T07:36:50;-0.06;97.33
71096;DHT22;58753;49.440;11.126;2023-12-07T07:39:15;-0.02;97.28
71096;DHT22;58753;49.440;11.126;2023-12-07T07:41:41;0.02;97.22
71096;DHT22;58753;49.440;11.126;2023-12-07T07:44:06;0.05;97.23
71096;DHT22;58753;49.440;11.126;2023-12-07T07:46:32;0.14;97.25
71096;DHT22;58753;49.440;11.126;2023-12-07T07:48:57;0.22;97.28
71096;DHT22;58753;49.440;11.126;2023-12-07T07:51:22;0.28;97.27
71096;DHT22;58753;49.440;11.126;2023-12-07T07:53:48;0.34;97.22
71096;DHT22;58753;49.440;11.126;2023-12-07T07:56:13;0.34;97.13
71096;DHT22;58753;49.440;11.126;2023-12-07T07:58:39;0.32;97.10
71096;DHT22;58753;49.440;11.126;2023-12-07T08:01:04;0.38;97.04
71096;DHT22;58753;49.440;11.126;2023-12-07T08:03:30;0.40;97.12
71096;DHT22;58753;49.440;11.126;2023-12-07T08:05:55;0.42;97.09
71096;DHT22;58753;49.440;11.126;2023-12-07T08:08:20;0.46;97.15
71096;DHT22;58753;49.440;11.126;2023-12-07T08:10:46;0.53;97.18
71096;DHT22;58753;49.440;11.126;2023-12-07T08:13:11;0.58;97.13
71096;DHT22;58753;49.440;11.126;2023-12-07T08:15:37;0.59;97.11
71096;DHT22;58753;49.440;11.126;2023-12-07T08:18:02;0.65;97.12
71096;DHT22;58753;49.440;11.126;2023-12-07T08:20:28;0.68;97.01
71096;DHT22;58753;49.440;11.126;2023-12-07T08:22:53;0.66;97.07
71096;DHT22;58753;49.440;11.126;2023-12-07T08:25:18;0.70;97.10
71096;DHT22;58753;49.440;11.126;2023-12-07T08:27:44;0.73;97.11
71096;DHT22;58753;49.440;11.126;2023-12-07T08:30:11;0.80;97.04
71096;DHT22;58753;49.440;11.126;2023-12-07T08:32:37;0.83;97.06
71096;DHT22;58753;49.440;11.126;2023-12-07T08:35:03;0.83;96.95
71096;DHT22;58753;49.440;11.126;2023-12-07T08:37:30;0.86;96.96
71096;DHT22;58753;49.440;11.126;2023-12-07T08:39:56;0.90;97.11
71096;DHT22;58753;49.440;11.126;2023-12-07T08:42:21;1.01;97.20
71096;DHT22;58753;49.440;11.126;2023-12-07T08:44:47;1.04;97.00
71096;DHT22;58753;49.440;11.126;2023-12-07T08:47:12;1.06;96.98
71096;DHT22;58753;49.440;11.126;2023-12-07T08:49:38;1.04;97.02
71096;DHT22;58753;49.440;11.126;2023-12-07T08:52:03;1.07;97.01
71096;DHT22;58753;49.440;11.126;2023-12-07T08:54:28;1.10;97.01
71096;DHT22;58753;49.440;11.126;2023-12-07T08:56:55;1.17;96.98
71096;DHT22;58753;49.440;11.126;2023-12-07T08:59:26;1.17;96.87
71096;DHT22;58753;49.440;11.126;2023-12-07T09:01:52;1.22;96.91
71096;DHT22;58753;49.440;11.126;2023-12-07T09:04:17;1.27;96.99
71096;DHT22;58753;49.440;11.126;2023-12-07T09:06:42;1.34;96.99
71096;DHT22;58753;49.440;11.126;2023-12-07T09:09:08;1.38;96.94
71096;DHT22;58753;49.440;11.126;2023-12-07T09:11:33;1.46;96.99
71096;DHT22;58753;49.440;11.126;2023-12-07T09:13:59;1.50;96.94
71096;DHT22;58753;49.440;11.126;2023-12-07T09:16:25;1.54;96.90
71096;DHT22;58753;49.440;11.126;2023-12-07T09:18:51;1.55;96.84
71096;DHT22;58753;49.440;11.126;2023-12-07T09:21:16;1.55;96.82
71096;DHT22;58753;49.440;11.126;2023-12-07T09:23:42;1.57;96.78
71096;DHT22;58753;49.440;11.126;2023-12-07T09:26:07;1.57;96.79
71096;DHT22;58753;49.440;11.126;2023-12-07T09:28:33;1.58;96.79
71096;DHT22;58753;49.440;11.126;2023-12-07T09:30:59;1.60;96.87
71096;DHT22;58753;49.440;11.126;2023-12-07T09:33:24;1.65;96.83
71096;DHT22;58753;49.440;11.126;2023-12-07T09:35:49;1.68;96.70
71096;DHT22;58753;49.440;11.126;2023-12-07T09:38:15;1.75;96.77
71096;DHT22;58753;49.440;11.126;2023-12-07T09:40:41;1.75;96.63
71096;DHT22;58753;49.440;11.126;2023-12-07T09:43:07;1.81;96.72
71096;DHT22;58753;49.440;11.126;2023-12-07T09:45:32;1.89;96.65
71096;DHT22;58753;49.440;11.126;2023-12-07T09:47:59;1.92;96.64
71096;DHT22;58753;49.440;11.126;2023-12-07T09:50:27;1.92;96.51
71096;DHT22;58753;49.440;11.126;2023-12-07T09:52:57;1.94;96.43
71096;DHT22;58753;49.440;11.126;2023-12-07T09:55:23;1.97;96.48
71096;DHT22;58753;49.440;11.126;2023-12-07T09:57:50;1.99;96.36
71096;DHT22;58753;49.440;11.126;2023-12-07T10:00:16;2.05;96.39
71096;DHT22;58753;49.440;11.126;2023-12-07T10:02:44;2.12;96.63
71096;DHT22;58753;49.440;11.126;2023-12-07T10:05:11;2.23;96.62
71096;DHT22;58753;49.440;11.126;2023-12-07T10:07:44;2.34;96.62
71096;DHT22;58753;49.440;11.126;2023-12-07T10:10:10;2.42;96.45
71096;DHT22;58753;49.440;11.126;2023-12-07T10:12:51;2.50;96.50
71096;DHT22;58753;49.440;11.126;2023-12-07T10:15:18;2.57;96.43
71096;DHT22;58753;49.440;11.126;2023-12-07T10:17:54;2.63;96.01
71096;DHT22;58753;49.440;11.126;2023-12-07T10:20:22;2.67;96.05
71096;DHT22;58753;49.440;11.126;2023-12-07T10:22:49;2.63;95.63
71096;DHT22;58753;49.440;11.126;2023-12-07T10:25:26;2.56;95.39
71096;DHT22;58753;49.440;11.126;2023-12-07T10:27:51;2.57;95.65
71096;DHT22;58753;49.440;11.126;2023-12-07T10:30:17;2.56;95.62
71096;DHT22;58753;49.440;11.126;2023-12-07T10:32:46;2.56;95.57
71096;DHT22;58753;49.440;11.126;2023-12-07T10:35:11;2.60;95.69
71096;DHT22;58753;49.440;11.126;2023-12-07T10:37:37;2.60;95.50
71096;DHT22;58753;49.440;11.126;2023-12-07T10:40:03;2.64;95.57
71096;DHT22;58753;49.440;11.126;2023-12-07T10:42:33;2.68;95.18
71096;DHT22;58753;49.440;11.126;2023-12-07T10:45:03;2.79;95.35
71096;DHT22;58753;49.440;11.126;2023-12-07T10:47:30;2.83;95.20
71096;DHT22;58753;49.440;11.126;2023-12-07T10:49:57;2.88;95.28
71096;DHT22;58753;49.440;11.126;2023-12-07T10:52:26;2.97;95.32
71096;DHT22;58753;49.440;11.126;2023-12-07T10:55:12;3.01;94.81
71096;DHT22;58753;49.440;11.126;2023-12-07T10:57:38;2.95;94.63
71096;DHT22;58753;49.440;11.126;2023-12-07T11:00:06;3.03;94.77
71096;DHT22;58753;49.440;11.126;2023-12-07T11:02:32;3.14;94.64
71096;DHT22;58753;49.440;11.126;2023-12-07T11:04:59;3.22;94.06
71096;DHT22;58753;49.440;11.126;2023-12-07T11:07:36;3.28;94.13
71096;DHT22;58753;49.440;11.126;2023-12-07T11:10:11;3.39;93.85
71096;DHT22;58753;49.440;11.126;2023-12-07T11:15:11;3.51;93.44
71096;DHT22;58753;49.440;11.126;2023-12-07T11:17:55;3.87;94.08
71096;DHT22;58753;49.440;11.126;2023-12-07T11:20:41;5.19;93.01
71096;DHT22;58753;49.440;11.126;2023-12-07T11:23:07;6.44;92.12
71096;DHT22;58753;49.440;11.126;2023-12-07T11:25:33;6.86;88.41
71096;DHT22;58753;49.440;11.126;2023-12-07T11:28:06;5.77;86.79
71096;DHT22;58753;49.440;11.126;2023-12-07T11:30:35;5.73;88.54
71096;DHT22;58753;49.440;11.126;2023-12-07T11:33:02;6.32;88.65
71096;DHT22;58753;49.440;11.126;2023-12-07T11:35:28;7.14;87.07
71096;DHT22;58753;49.440;11.126;2023-12-07T11:38:08;7.91;85.96
71096;DHT22;58753;49.440;11.126;2023-12-07T11:40:43;7.13;82.64
71096;DHT22;58753;49.440;11.126;2023-12-07T11:43:30;6.18;85.18
71096;DHT22;58753;49.440;11.126;2023-12-07T11:46:01;5.51;86.25
71096;DHT22;58753;49.440;11.126;2023-12-07T11:48:26;5.16;86.79
71096;DHT22;58753;49.440;11.126;2023-12-07T11:51:02;4.81;86.90
71096;DHT22;58753;49.440;11.126;2023-12-07T11:53:35;4.74;87.02
71096;DHT22;58753;49.440;11.126;2023-12-07T11:56:05;4.84;87.09
71096;DHT22;58753;49.440;11.126;2023-12-07T11:58:33;4.82;87.71
71096;DHT22;58753;49.440;11.126;2023-12-07T12:00:59;5.43;87.91
71096;DHT22;58753;49.440;11.126;2023-12-07T12:03:26;6.12;87.24
71096;DHT22;58753;49.440;11.126;2023-12-07T12:05:52;6.86;87.54
71096;DHT22;58753;49.440;11.126;2023-12-07T12:08:18;6.82;86.02
71096;DHT22;58753;49.440;11.126;2023-12-07T12:10:44;6.66;84.45
71096;DHT22;58753;49.440;11.126;2023-12-07T12:13:11;7.08;84.91
71096;DHT22;58753;49.440;11.126;2023-12-07T12:15:38;7.62;83.23
71096;DHT22;58753;49.440;11.126;2023-12-07T12:18:04;7.71;82.77
71096;DHT22;58753;49.440;11.126;2023-12-07T12:20:30;7.55;80.90
71096;DHT22;58753;49.440;11.126;2023-12-07T12:22:56;7.10;79.50
71096;DHT22;58753;49.440;11.126;2023-12-07T12:25:40;6.90;81.17
71096;DHT22;58753;49.440;11.126;2023-12-07T12:28:07;7.34;80.94
71096;DHT22;58753;49.440;11.126;2023-12-07T12:30:33;8.13;79.94
71096;DHT22;58753;49.440;11.126;2023-12-07T12:32:59;8.59;77.61
71096;DHT22;58753;49.440;11.126;2023-12-07T12:35:25;9.10;77.61
71096;DHT22;58753;49.440;11.126;2023-12-07T12:37:50;9.62;75.48
71096;DHT22;58753;49.440;11.126;2023-12-07T12:40:18;10.02;74.93
71096;DHT22;58753;49.440;11.126;2023-12-07T12:42:51;10.34;73.25
71096;DHT22;58753;49.440;11.126;2023-12-07T12:45:17;10.33;71.28
71096;DHT22;58753;49.440;11.126;2023-12-07T12:47:44;10.12;71.20
71096;DHT22;58753;49.440;11.126;2023-12-07T12:50:11;8.78;69.99
71096;DHT22;58753;49.440;11.126;2023-12-07T12:52:39;7.91;70.00
71096;DHT22;58753;49.440;11.126;2023-12-07T12:55:10;7.07;70.38
71096;DHT22;58753;49.440;11.126;2023-12-07T12:57:37;6.11;71.04
71096;DHT22;58753;49.440;11.126;2023-12-07T13:00:03;5.42;71.99
71096;DHT22;58753;49.440;11.126;2023-12-07T13:02:29;5.11;73.36
71096;DHT22;58753;49.440;11.126;2023-12-07T13:04:54;5.12;74.09
71096;DHT22;58753;49.440;11.126;2023-12-07T13:07:21;5.28;74.97
71096;DHT22;58753;49.440;11.126;2023-12-07T13:09:46;5.66;75.23
71096;DHT22;58753;49.440;11.126;2023-12-07T13:12:12;5.53;74.52
71096;DHT22;58753;49.440;11.126;2023-12-07T13:14:37;5.30;74.87
71096;DHT22;58753;49.440;11.126;2023-12-07T13:17:05;5.12;75.11
71096;DHT22;58753;49.440;11.126;2023-12-07T13:19:32;5.08;75.40
71096;DHT22;58753;49.440;11.126;2023-12-07T13:21:58;5.00;75.67
71096;DHT22;58753;49.440;11.126;2023-12-07T13:24:23;4.85;75.30
71096;DHT22;58753;49.440;11.126;2023-12-07T13:26:49;4.61;75.40
71096;DHT22;58753;49.440;11.126;2023-12-07T13:29:14;4.45;75.70
71096;DHT22;58753;49.440;11.126;2023-12-07T13:31:40;4.29;75.82
71096;DHT22;58753;49.440;11.126;2023-12-07T13:34:06;4.27;76.20
71096;DHT22;58753;49.440;11.126;2023-12-07T13:36:31;4.18;76.25
71096;DHT22;58753;49.440;11.126;2023-12-07T13:38:59;4.18;76.67
71096;DHT22;58753;49.440;11.126;2023-12-07T13:41:24;4.02;76.68
71096;DHT22;58753;49.440;11.126;2023-12-07T13:43:49;3.85;76.80
71096;DHT22;58753;49.440;11.126;2023-12-07T13:46:19;3.69;77.31
71096;DHT22;58753;49.440;11.126;2023-12-07T13:48:44;3.55;77.57
71096;DHT22;58753;49.440;11.126;2023-12-07T13:51:10;3.40;77.94
71096;DHT22;58753;49.440;11.126;2023-12-07T13:53:36;3.29;78.29
71096;DHT22;58753;49.440;11.126;2023-12-07T13:56:03;3.18;78.48
71096;DHT22;58753;49.440;11.126;2023-12-07T13:58:32;3.05;78.70
71096;DHT22;58753;49.440;11.126;2023-12-07T14:00:57;3.01;79.19
71096;DHT22;58753;49.440;11.126;2023-12-07T14:03:23;3.00;79.37
71096;DHT22;58753;49.440;11.126;2023-12-07T14:05:48;2.93;79.84
71096;DHT22;58753;49.440;11.126;2023-12-07T14:08:14;2.85;79.66
71096;DHT22;58753;49.440;11.126;2023-12-07T14:10:40;2.81;80.15
71096;DHT22;58753;49.440;11.126;2023-12-07T14:13:05;2.74;80.34
71096;DHT22;58753;49.440;11.126;2023-12-07T14:15:30;2.67;80.55
71096;DHT22;58753;49.440;11.126;2023-12-07T14:17:59;2.63;80.58
71096;DHT22;58753;49.440;11.126;2023-12-07T14:20:25;2.53;80.86
71096;DHT22;58753;49.440;11.126;2023-12-07T14:22:53;2.49;81.07
71096;DHT22;58753;49.440;11.126;2023-12-07T14:25:18;2.37;81.38
71096;DHT22;58753;49.440;11.126;2023-12-07T14:27:44;2.30;81.44
71096;DHT22;58753;49.440;11.126;2023-12-07T14:30:10;2.19;81.72
71096;DHT22;58753;49.440;11.126;2023-12-07T14:32:36;2.11;81.98
71096;DHT22;58753;49.440;11.126;2023-12-07T14:35:01;2.03;82.33
71096;DHT22;58753;49.440;11.126;2023-12-07T14:37:26;1.92;82.42
71096;DHT22;58753;49.440;11.126;2023-12-07T14:39:52;1.88;82.73
71096;DHT22;58753;49.440;11.126;2023-12-07T14:42:17;1.78;82.92
71096;DHT22;58753;49.440;11.126;2023-12-07T14:44:43;1.69;83.08
71096;DHT22;58753;49.440;11.126;2023-12-07T14:47:08;1.61;83.25
71096;DHT22;58753;49.440;11.126;2023-12-07T14:49:33;1.57;83.43
71096;DHT22;58753;49.440;11.126;2023-12-07T14:51:59;1.47;83.63
71096;DHT22;58753;49.440;11.126;2023-12-07T14:54:26;1.38;83.81
71096;DHT22;58753;49.440;11.126;2023-12-07T14:56:52;1.28;84.04
71096;DHT22;58753;49.440;11.126;2023-12-07T14:59:18;1.26;84.20
71096;DHT22;58753;49.440;11.126;2023-12-07T15:01:45;1.13;84.45
71096;DHT22;58753;49.440;11.126;2023-12-07T15:04:10;1.06;84.60
71096;DHT22;58753;49.440;11.126;2023-12-07T15:06:36;0.97;84.76
71096;DHT22;58753;49.440;11.126;2023-12-07T15:09:02;0.87;84.98
71096;DHT22;58753;49.440;11.126;2023-12-07T15:11:35;0.80;85.30
71096;DHT22;58753;49.440;11.126;2023-12-07T15:14:01;0.73;85.41
71096;DHT22;58753;49.440;11.126;2023-12-07T15:16:27;0.65;85.61
71096;DHT22;58753;49.440;11.126;2023-12-07T15:18:53;0.55;85.78
71096;DHT22;58753;49.440;11.126;2023-12-07T15:21:18;0.49;86.02
71096;DHT22;58753;49.440;11.126;2023-12-07T15:23:45;0.40;86.26
71096;DHT22;58753;49.440;11.126;2023-12-07T15:26:11;0.34;86.50
71096;DHT22;58753;49.440;11.126;2023-12-07T15:28:38;0.26;86.65